RAM666 GMTT-LFPO
Flight info
| Callsign | RAM666 |
|---|---|
| Flight time | 2h 7m |
| Altitude | 38000 |
| Route | NOLRO DCT ADKIM Z53 VJF N10 HIJ DCT RUSEM DCT SOTUK DCT USOKO DCT TLD DCT SIE DCT EDIGO DCT DGO L176 LUSEM DCT LULUT DCT TUDRA DCT BEVOL UT158 AMB |
| Aircraft | B38M/M-SDE1FGHILORVWXY/HB1 |
Departure
| Time | 2026-04-25 10:36 |
|---|---|
| Airport | Tangier Ibn Battuta Airport (GMTT) |
Arrival
| Time | 2026-04-25 12:43 |
|---|---|
| Airport | Paris-Orly Airport (LFPO) |
| Time | Latitude | Longitude | Altitude | Speed | Heading |
|---|---|---|---|---|---|
| 2026-04-25 10:17 | 35.72605 | -5.91611 | 62 ft | 0 kts | 85° |
| 2026-04-25 10:26 | 35.72603 | -5.91630 | 57 ft | 3 kts | 81° |
| 2026-04-25 10:26 | 35.72599 | -5.91655 | 58 ft | 3 kts | 70° |
| 2026-04-25 10:26 | 35.72590 | -5.91677 | 56 ft | 3 kts | 51° |
| 2026-04-25 10:27 | 35.72576 | -5.91691 | 60 ft | 3 kts | 10° |
| 2026-04-25 10:27 | 35.72569 | -5.91692 | 62 ft | 2 kts | 356° |
| 2026-04-25 10:29 | 35.72571 | -5.91692 | 61 ft | 1 kts | 356° |
| 2026-04-25 10:29 | 35.72588 | -5.91694 | 60 ft | 4 kts | 356° |
| 2026-04-25 10:29 | 35.72635 | -5.91698 | 62 ft | 10 kts | 356° |
| 2026-04-25 10:30 | 35.72715 | -5.91705 | 62 ft | 13 kts | 355° |
| 2026-04-25 10:30 | 35.72810 | -5.91714 | 62 ft | 14 kts | 355° |
| 2026-04-25 10:30 | 35.72896 | -5.91722 | 62 ft | 10 kts | 355° |
| 2026-04-25 10:30 | 35.72946 | -5.91759 | 56 ft | 9 kts | 299° |
| 2026-04-25 10:31 | 35.72958 | -5.91847 | 54 ft | 12 kts | 276° |
| 2026-04-25 10:31 | 35.72969 | -5.91964 | 62 ft | 16 kts | 276° |
| 2026-04-25 10:31 | 35.72982 | -5.92110 | 62 ft | 18 kts | 276° |
| 2026-04-25 10:31 | 35.72998 | -5.92274 | 62 ft | 20 kts | 276° |
| 2026-04-25 10:32 | 35.73013 | -5.92441 | 60 ft | 19 kts | 276° |
| 2026-04-25 10:32 | 35.73029 | -5.92608 | 62 ft | 20 kts | 276° |
| 2026-04-25 10:32 | 35.73046 | -5.92787 | 59 ft | 22 kts | 277° |
| 2026-04-25 10:32 | 35.73064 | -5.92981 | 59 ft | 22 kts | 276° |
| 2026-04-25 10:33 | 35.73082 | -5.93174 | 62 ft | 23 kts | 276° |
| 2026-04-25 10:33 | 35.73099 | -5.93365 | 62 ft | 21 kts | 276° |
| 2026-04-25 10:33 | 35.73116 | -5.93547 | 56 ft | 21 kts | 276° |
| 2026-04-25 10:33 | 35.73131 | -5.93701 | 53 ft | 15 kts | 276° |
| 2026-04-25 10:34 | 35.73144 | -5.93843 | 62 ft | 18 kts | 276° |
| 2026-04-25 10:34 | 35.73157 | -5.93970 | 62 ft | 11 kts | 278° |
| 2026-04-25 10:34 | 35.73200 | -5.94044 | 62 ft | 12 kts | 330° |
| 2026-04-25 10:34 | 35.73283 | -5.94047 | 61 ft | 12 kts | 25° |
| 2026-04-25 10:35 | 35.73335 | -5.93985 | 64 ft | 8 kts | 75° |
| 2026-04-25 10:35 | 35.73332 | -5.93918 | 57 ft | 9 kts | 96° |
| 2026-04-25 10:35 | 35.73316 | -5.93740 | 62 ft | 50 kts | 96° |
| 2026-04-25 10:35 | 35.73249 | -5.93003 | 62 ft | 120 kts | 96° |
| 2026-04-25 10:36 | 35.73136 | -5.91772 | 233 ft | 156 kts | 96° |
| 2026-04-25 10:36 | 35.72967 | -5.90347 | 684 ft | 178 kts | 95° |
| 2026-04-25 10:36 | 35.72831 | -5.88802 | 1388 ft | 186 kts | 95° |
| 2026-04-25 10:36 | 35.72694 | -5.87204 | 2206 ft | 188 kts | 96° |
| 2026-04-25 10:37 | 35.72556 | -5.85598 | 3054 ft | 190 kts | 95° |
| 2026-04-25 10:37 | 35.72414 | -5.83970 | 3874 ft | 192 kts | 95° |
| 2026-04-25 10:37 | 35.72271 | -5.82328 | 4692 ft | 194 kts | 96° |
| 2026-04-25 10:37 | 35.72129 | -5.80668 | 5433 ft | 200 kts | 94° |
| 2026-04-25 10:38 | 35.72334 | -5.78899 | 5841 ft | 223 kts | 69° |
| 2026-04-25 10:38 | 35.73336 | -5.77300 | 6164 ft | 253 kts | 32° |
| 2026-04-25 10:38 | 35.75043 | -5.76680 | 6900 ft | 268 kts | 359° |
| 2026-04-25 10:38 | 35.76885 | -5.77295 | 7550 ft | 284 kts | 336° |
| 2026-04-25 10:39 | 35.78731 | -5.78177 | 8501 ft | 286 kts | 342° |
| 2026-04-25 10:39 | 35.80632 | -5.78973 | 9394 ft | 291 kts | 342° |
| 2026-04-25 10:39 | 35.82562 | -5.79787 | 10268 ft | 296 kts | 341° |
| 2026-04-25 10:39 | 35.84566 | -5.80629 | 10794 ft | 314 kts | 342° |
| 2026-04-25 10:40 | 35.86695 | -5.81513 | 11258 ft | 330 kts | 341° |
| 2026-04-25 10:40 | 35.88900 | -5.82436 | 11964 ft | 337 kts | 341° |
| 2026-04-25 10:40 | 35.91127 | -5.83383 | 12852 ft | 340 kts | 341° |
| 2026-04-25 10:40 | 35.93377 | -5.84346 | 13688 ft | 344 kts | 340° |
| 2026-04-25 10:41 | 35.95648 | -5.85319 | 14493 ft | 347 kts | 340° |
| 2026-04-25 10:41 | 35.97930 | -5.86301 | 15306 ft | 349 kts | 340° |
| 2026-04-25 10:41 | 36.00228 | -5.87290 | 16126 ft | 352 kts | 340° |
| 2026-04-25 10:41 | 36.02547 | -5.88290 | 16910 ft | 354 kts | 340° |
| 2026-04-25 10:42 | 36.04888 | -5.89300 | 17639 ft | 358 kts | 340° |
| 2026-04-25 10:42 | 36.07247 | -5.90319 | 18379 ft | 361 kts | 340° |
| 2026-04-25 10:42 | 36.09631 | -5.91350 | 18970 ft | 365 kts | 340° |
| 2026-04-25 10:42 | 36.12043 | -5.92393 | 19553 ft | 369 kts | 340° |
| 2026-04-25 10:43 | 36.14484 | -5.93450 | 20121 ft | 373 kts | 340° |
| 2026-04-25 10:43 | 36.16947 | -5.94518 | 20671 ft | 378 kts | 340° |
| 2026-04-25 10:43 | 36.19450 | -5.95603 | 21169 ft | 384 kts | 340° |
| 2026-04-25 10:43 | 36.21987 | -5.96693 | 21722 ft | 388 kts | 342° |
| 2026-04-25 10:44 | 36.24662 | -5.97192 | 22274 ft | 392 kts | 2° |
| 2026-04-25 10:44 | 36.27378 | -5.96838 | 22890 ft | 395 kts | 7° |
| 2026-04-25 10:44 | 36.30131 | -5.96404 | 23325 ft | 402 kts | 7° |
| 2026-04-25 10:44 | 36.32908 | -5.95942 | 23841 ft | 404 kts | 8° |
| 2026-04-25 10:45 | 36.35672 | -5.95466 | 24285 ft | 408 kts | 8° |
| 2026-04-25 10:45 | 36.38522 | -5.94964 | 24764 ft | 410 kts | 9° |
| 2026-04-25 10:45 | 36.41324 | -5.94469 | 25187 ft | 413 kts | 9° |
| 2026-04-25 10:45 | 36.44179 | -5.93962 | 25635 ft | 416 kts | 9° |
| 2026-04-25 10:46 | 36.47087 | -5.93445 | 26078 ft | 418 kts | 9° |
| 2026-04-25 10:46 | 36.49937 | -5.92938 | 26498 ft | 421 kts | 9° |
| 2026-04-25 10:46 | 36.52890 | -5.92413 | 26921 ft | 424 kts | 9° |
| 2026-04-25 10:46 | 36.55820 | -5.91891 | 27341 ft | 427 kts | 10° |
| 2026-04-25 10:47 | 36.58765 | -5.91366 | 27750 ft | 429 kts | 10° |
| 2026-04-25 10:47 | 36.61694 | -5.90843 | 28151 ft | 432 kts | 10° |
| 2026-04-25 10:47 | 36.64677 | -5.90311 | 28521 ft | 435 kts | 11° |
| 2026-04-25 10:47 | 36.67684 | -5.89774 | 28911 ft | 438 kts | 11° |
| 2026-04-25 10:48 | 36.70710 | -5.89233 | 29288 ft | 440 kts | 11° |
| 2026-04-25 10:48 | 36.73751 | -5.88689 | 29660 ft | 443 kts | 11° |
| 2026-04-25 10:48 | 36.76808 | -5.88142 | 29984 ft | 446 kts | 11° |
| 2026-04-25 10:48 | 36.79893 | -5.87589 | 30347 ft | 449 kts | 11° |
| 2026-04-25 10:49 | 36.82992 | -5.87034 | 30656 ft | 452 kts | 11° |
| 2026-04-25 10:49 | 36.85062 | -5.86661 | 30841 ft | 453 kts | 11° |
| 2026-04-25 10:49 | 36.89260 | -5.85907 | 31199 ft | 458 kts | 11° |
| 2026-04-25 10:49 | 36.92420 | -5.85340 | 31467 ft | 460 kts | 11° |
| 2026-04-25 10:50 | 36.95597 | -5.84768 | 31767 ft | 463 kts | 11° |
| 2026-04-25 10:50 | 36.98801 | -5.84191 | 32029 ft | 466 kts | 11° |
| 2026-04-25 10:50 | 37.02015 | -5.83611 | 32249 ft | 470 kts | 11° |
| 2026-04-25 10:50 | 37.05260 | -5.83026 | 32525 ft | 472 kts | 11° |
| 2026-04-25 10:51 | 37.08518 | -5.82437 | 32829 ft | 474 kts | 11° |
| 2026-04-25 10:51 | 37.11782 | -5.81847 | 33195 ft | 474 kts | 11° |
| 2026-04-25 10:51 | 37.15047 | -5.81257 | 33503 ft | 475 kts | 11° |
| 2026-04-25 10:51 | 37.18322 | -5.80664 | 33834 ft | 476 kts | 11° |
| 2026-04-25 10:52 | 37.21602 | -5.80069 | 34175 ft | 476 kts | 11° |
| 2026-04-25 10:52 | 37.24884 | -5.79475 | 34489 ft | 476 kts | 11° |
| 2026-04-25 10:52 | 37.28159 | -5.78881 | 34815 ft | 475 kts | 10° |
| 2026-04-25 10:52 | 37.31424 | -5.78288 | 35165 ft | 474 kts | 10° |
| 2026-04-25 10:53 | 37.34682 | -5.77695 | 35533 ft | 472 kts | 10° |
| 2026-04-25 10:53 | 37.37925 | -5.77105 | 35876 ft | 470 kts | 9° |
| 2026-04-25 10:53 | 37.41164 | -5.76493 | 36182 ft | 469 kts | 13° |
| 2026-04-25 10:53 | 37.44231 | -5.75214 | 36508 ft | 462 kts | 27° |
| 2026-04-25 10:54 | 37.47126 | -5.73485 | 36796 ft | 462 kts | 26° |
| 2026-04-25 10:54 | 37.49064 | -5.72357 | 36930 ft | 462 kts | 26° |
| 2026-04-25 10:54 | 37.52954 | -5.70051 | 37254 ft | 462 kts | 26° |
| 2026-04-25 10:54 | 37.55857 | -5.68304 | 37505 ft | 462 kts | 26° |
| 2026-04-25 10:55 | 37.58754 | -5.66552 | 37774 ft | 461 kts | 26° |
| 2026-04-25 10:55 | 37.61644 | -5.64800 | 38015 ft | 461 kts | 26° |
| 2026-04-25 10:55 | 37.64535 | -5.63045 | 38105 ft | 462 kts | 26° |
| 2026-04-25 10:56 | 37.70269 | -5.59561 | 38061 ft | 459 kts | 26° |
| 2026-04-25 10:56 | 37.76072 | -5.56028 | 38072 ft | 460 kts | 26° |
| 2026-04-25 10:57 | 37.81802 | -5.52535 | 38069 ft | 461 kts | 27° |
| 2026-04-25 10:57 | 37.87570 | -5.49011 | 38070 ft | 461 kts | 27° |
| 2026-04-25 10:58 | 37.93343 | -5.45478 | 38069 ft | 461 kts | 27° |
| 2026-04-25 10:58 | 37.99122 | -5.41936 | 38066 ft | 461 kts | 27° |
| 2026-04-25 10:59 | 38.04904 | -5.38386 | 38064 ft | 461 kts | 27° |
| 2026-04-25 10:59 | 38.10681 | -5.34832 | 38065 ft | 462 kts | 27° |
| 2026-04-25 11:00 | 38.16462 | -5.31269 | 38069 ft | 462 kts | 27° |
| 2026-04-25 11:00 | 38.22249 | -5.27696 | 38065 ft | 462 kts | 27° |
| 2026-04-25 11:01 | 38.28040 | -5.24115 | 38067 ft | 462 kts | 28° |
| 2026-04-25 11:01 | 38.33822 | -5.20533 | 38067 ft | 463 kts | 28° |
| 2026-04-25 11:02 | 38.39622 | -5.16933 | 38063 ft | 463 kts | 28° |
| 2026-04-25 11:02 | 38.45416 | -5.13332 | 38094 ft | 464 kts | 28° |
| 2026-04-25 11:03 | 38.51248 | -5.09808 | 38061 ft | 465 kts | 23° |
| 2026-04-25 11:03 | 38.57283 | -5.06805 | 38071 ft | 465 kts | 24° |
| 2026-04-25 11:04 | 38.63294 | -5.03721 | 38071 ft | 466 kts | 24° |
| 2026-04-25 11:04 | 38.68289 | -5.01144 | 38068 ft | 466 kts | 24° |
| 2026-04-25 11:05 | 38.74298 | -4.98039 | 38065 ft | 466 kts | 24° |
| 2026-04-25 11:05 | 38.80308 | -4.94926 | 38079 ft | 466 kts | 24° |
| 2026-04-25 11:06 | 38.86310 | -4.91812 | 38079 ft | 466 kts | 25° |
| 2026-04-25 11:06 | 38.92318 | -4.88690 | 38076 ft | 465 kts | 25° |
| 2026-04-25 11:07 | 38.98322 | -4.85564 | 38056 ft | 466 kts | 25° |
| 2026-04-25 11:07 | 39.04333 | -4.82450 | 38083 ft | 466 kts | 24° |
| 2026-04-25 11:08 | 39.10345 | -4.79331 | 38068 ft | 466 kts | 24° |
| 2026-04-25 11:08 | 39.16351 | -4.76209 | 38072 ft | 465 kts | 24° |
| 2026-04-25 11:09 | 39.22355 | -4.73083 | 38076 ft | 465 kts | 24° |
| 2026-04-25 11:09 | 39.28358 | -4.69951 | 38071 ft | 465 kts | 24° |
| 2026-04-25 11:10 | 39.34350 | -4.66820 | 38075 ft | 465 kts | 24° |
| 2026-04-25 11:10 | 39.40345 | -4.63681 | 38076 ft | 464 kts | 24° |
| 2026-04-25 11:11 | 39.46336 | -4.60539 | 38082 ft | 464 kts | 25° |
| 2026-04-25 11:11 | 39.52318 | -4.57396 | 38085 ft | 464 kts | 24° |
| 2026-04-25 11:12 | 39.58301 | -4.54246 | 38085 ft | 464 kts | 25° |
| 2026-04-25 11:12 | 39.64275 | -4.51095 | 38090 ft | 463 kts | 24° |
| 2026-04-25 11:13 | 39.70248 | -4.47938 | 38092 ft | 463 kts | 25° |
| 2026-04-25 11:13 | 39.76219 | -4.44778 | 38095 ft | 463 kts | 24° |
| 2026-04-25 11:14 | 39.82145 | -4.41630 | 38099 ft | 463 kts | 25° |
| 2026-04-25 11:14 | 39.88138 | -4.38440 | 38097 ft | 462 kts | 25° |
| 2026-04-25 11:15 | 39.94047 | -4.35288 | 38097 ft | 462 kts | 25° |
| 2026-04-25 11:15 | 39.99905 | -4.31846 | 38105 ft | 461 kts | 27° |
| 2026-04-25 11:16 | 40.08618 | -4.26524 | 38095 ft | 461 kts | 27° |
| 2026-04-25 11:16 | 40.14436 | -4.22977 | 38107 ft | 461 kts | 27° |
| 2026-04-25 11:17 | 40.20241 | -4.19431 | 38108 ft | 461 kts | 27° |
| 2026-04-25 11:17 | 40.26048 | -4.15877 | 38109 ft | 460 kts | 27° |
| 2026-04-25 11:18 | 40.31846 | -4.12322 | 38117 ft | 460 kts | 27° |
| 2026-04-25 11:18 | 40.37642 | -4.08761 | 38121 ft | 460 kts | 27° |
| 2026-04-25 11:19 | 40.43437 | -4.05195 | 38121 ft | 460 kts | 27° |
| 2026-04-25 11:19 | 40.49225 | -4.01625 | 38128 ft | 460 kts | 27° |
| 2026-04-25 11:20 | 40.55017 | -3.98046 | 38141 ft | 460 kts | 27° |
| 2026-04-25 11:20 | 40.60799 | -3.94468 | 38145 ft | 459 kts | 27° |
| 2026-04-25 11:21 | 40.66582 | -3.90880 | 38157 ft | 459 kts | 27° |
| 2026-04-25 11:21 | 40.72365 | -3.87287 | 38155 ft | 459 kts | 27° |
| 2026-04-25 11:22 | 40.77162 | -3.84300 | 38165 ft | 459 kts | 27° |
| 2026-04-25 11:22 | 40.83904 | -3.80095 | 38152 ft | 459 kts | 27° |
| 2026-04-25 11:23 | 40.89636 | -3.76512 | 38154 ft | 449 kts | 25° |
| 2026-04-25 11:23 | 40.95244 | -3.73000 | 38138 ft | 445 kts | 25° |
| 2026-04-25 11:24 | 41.00850 | -3.69483 | 38126 ft | 446 kts | 25° |
| 2026-04-25 11:24 | 41.06454 | -3.65961 | 38134 ft | 447 kts | 25° |
| 2026-04-25 11:25 | 41.12036 | -3.62447 | 38125 ft | 447 kts | 25° |
| 2026-04-25 11:25 | 41.17732 | -3.59163 | 38140 ft | 446 kts | 21° |
| 2026-04-25 11:26 | 41.23488 | -3.56033 | 38123 ft | 447 kts | 22° |
| 2026-04-25 11:26 | 41.29230 | -3.52878 | 38125 ft | 447 kts | 22° |
| 2026-04-25 11:27 | 41.34984 | -3.49708 | 38121 ft | 448 kts | 22° |
| 2026-04-25 11:27 | 41.39804 | -3.47048 | 38125 ft | 448 kts | 22° |
| 2026-04-25 11:28 | 41.46487 | -3.43353 | 38131 ft | 448 kts | 22° |
| 2026-04-25 11:28 | 41.52250 | -3.40172 | 38124 ft | 448 kts | 21° |
| 2026-04-25 11:29 | 41.58020 | -3.36990 | 38125 ft | 448 kts | 22° |
| 2026-04-25 11:29 | 41.63774 | -3.33810 | 38124 ft | 448 kts | 22° |
| 2026-04-25 11:30 | 41.69535 | -3.30621 | 38128 ft | 448 kts | 22° |
| 2026-04-25 11:30 | 41.75293 | -3.27427 | 38123 ft | 448 kts | 22° |
| 2026-04-25 11:31 | 41.81041 | -3.24232 | 38126 ft | 447 kts | 22° |
| 2026-04-25 11:31 | 41.86796 | -3.21028 | 38133 ft | 448 kts | 22° |
| 2026-04-25 11:32 | 41.92548 | -3.17818 | 38133 ft | 447 kts | 22° |
| 2026-04-25 11:32 | 41.98298 | -3.14603 | 38136 ft | 448 kts | 22° |
| 2026-04-25 11:33 | 42.04044 | -3.11385 | 38142 ft | 448 kts | 22° |
| 2026-04-25 11:33 | 42.09794 | -3.08157 | 38152 ft | 448 kts | 22° |
| 2026-04-25 11:34 | 42.15550 | -3.04920 | 38154 ft | 448 kts | 22° |
| 2026-04-25 11:34 | 42.21302 | -3.01679 | 38161 ft | 449 kts | 22° |
| 2026-04-25 11:35 | 42.27065 | -2.98425 | 38169 ft | 449 kts | 22° |
| 2026-04-25 11:35 | 42.32797 | -2.95182 | 38166 ft | 449 kts | 22° |
| 2026-04-25 11:36 | 42.38593 | -2.91898 | 38161 ft | 449 kts | 22° |
| 2026-04-25 11:36 | 42.44294 | -2.88583 | 38158 ft | 449 kts | 28° |
| 2026-04-25 11:37 | 42.46807 | -2.86129 | 38173 ft | 447 kts | 42° |
| 2026-04-25 11:37 | 42.49158 | -2.83343 | 38154 ft | 450 kts | 40° |
| 2026-04-25 11:37 | 42.53881 | -2.77769 | 38180 ft | 450 kts | 41° |
| 2026-04-25 11:38 | 42.58569 | -2.72130 | 38175 ft | 450 kts | 41° |
| 2026-04-25 11:38 | 42.63248 | -2.66476 | 38176 ft | 451 kts | 41° |
| 2026-04-25 11:39 | 42.67934 | -2.60800 | 38180 ft | 451 kts | 41° |
| 2026-04-25 11:39 | 42.72618 | -2.55114 | 38180 ft | 452 kts | 41° |
| 2026-04-25 11:40 | 42.77308 | -2.49408 | 38179 ft | 452 kts | 41° |
| 2026-04-25 11:40 | 42.81995 | -2.43696 | 38182 ft | 452 kts | 41° |
| 2026-04-25 11:41 | 42.86680 | -2.37972 | 38181 ft | 452 kts | 41° |
| 2026-04-25 11:41 | 42.91361 | -2.32241 | 38182 ft | 452 kts | 41° |
| 2026-04-25 11:42 | 42.96039 | -2.26505 | 38185 ft | 452 kts | 41° |
| 2026-04-25 11:42 | 43.00707 | -2.20758 | 38189 ft | 451 kts | 41° |
| 2026-04-25 11:43 | 43.05365 | -2.15011 | 38192 ft | 451 kts | 41° |
| 2026-04-25 11:43 | 43.10023 | -2.09254 | 38197 ft | 451 kts | 41° |
| 2026-04-25 11:44 | 43.14675 | -2.03494 | 38204 ft | 451 kts | 41° |
| 2026-04-25 11:44 | 43.19331 | -1.97719 | 38207 ft | 451 kts | 42° |
| 2026-04-25 11:45 | 43.23984 | -1.91934 | 38213 ft | 452 kts | 42° |
| 2026-04-25 11:45 | 43.28638 | -1.86136 | 38214 ft | 452 kts | 42° |
| 2026-04-25 11:46 | 43.33680 | -1.81082 | 38226 ft | 449 kts | 28° |
| 2026-04-25 11:46 | 43.39024 | -1.76566 | 38215 ft | 451 kts | 33° |
| 2026-04-25 11:47 | 43.44255 | -1.71792 | 38214 ft | 452 kts | 33° |
| 2026-04-25 11:47 | 43.49518 | -1.67039 | 38215 ft | 452 kts | 32° |
| 2026-04-25 11:48 | 43.54774 | -1.62289 | 38213 ft | 452 kts | 33° |
| 2026-04-25 11:48 | 43.60037 | -1.57523 | 38209 ft | 452 kts | 33° |
| 2026-04-25 11:49 | 43.65296 | -1.52751 | 38208 ft | 453 kts | 33° |
| 2026-04-25 11:49 | 43.70555 | -1.47969 | 38205 ft | 453 kts | 33° |
| 2026-04-25 11:50 | 43.74932 | -1.43981 | 38188 ft | 453 kts | 33° |
| 2026-04-25 11:50 | 43.80193 | -1.39178 | 38186 ft | 453 kts | 33° |
| 2026-04-25 11:51 | 43.85456 | -1.34364 | 38185 ft | 453 kts | 33° |
| 2026-04-25 11:51 | 43.90717 | -1.29540 | 38183 ft | 453 kts | 33° |
| 2026-04-25 11:52 | 43.95975 | -1.24710 | 38185 ft | 454 kts | 33° |
| 2026-04-25 11:52 | 44.01237 | -1.19864 | 38179 ft | 454 kts | 33° |
| 2026-04-25 11:53 | 44.06495 | -1.15012 | 38183 ft | 454 kts | 33° |
| 2026-04-25 11:53 | 44.11753 | -1.10149 | 38185 ft | 454 kts | 33° |
| 2026-04-25 11:54 | 44.17020 | -1.05267 | 38186 ft | 455 kts | 33° |
| 2026-04-25 11:55 | 44.24917 | -0.97929 | 38183 ft | 455 kts | 33° |
| 2026-04-25 11:55 | 44.30185 | -0.93021 | 38183 ft | 455 kts | 33° |
| 2026-04-25 11:56 | 44.35447 | -0.88108 | 38183 ft | 455 kts | 33° |
| 2026-04-25 11:56 | 44.40788 | -0.83340 | 38177 ft | 455 kts | 26° |
| 2026-04-25 11:57 | 44.46401 | -0.79229 | 38176 ft | 456 kts | 27° |
| 2026-04-25 11:57 | 44.52029 | -0.75126 | 38175 ft | 456 kts | 27° |
| 2026-04-25 11:58 | 44.57664 | -0.71016 | 38180 ft | 457 kts | 27° |
| 2026-04-25 11:58 | 44.63300 | -0.66895 | 38178 ft | 457 kts | 27° |
| 2026-04-25 11:59 | 44.68935 | -0.62766 | 38181 ft | 457 kts | 27° |
| 2026-04-25 11:59 | 44.74573 | -0.58625 | 38184 ft | 457 kts | 27° |
| 2026-04-25 12:00 | 44.83034 | -0.52394 | 38181 ft | 458 kts | 27° |
| 2026-04-25 12:01 | 44.91502 | -0.46138 | 38178 ft | 458 kts | 27° |
| 2026-04-25 12:01 | 44.97140 | -0.41960 | 38174 ft | 459 kts | 27° |
| 2026-04-25 12:02 | 45.05596 | -0.35678 | 38164 ft | 459 kts | 27° |
| 2026-04-25 12:02 | 45.11292 | -0.31433 | 38164 ft | 460 kts | 27° |
| 2026-04-25 12:03 | 45.16954 | -0.27205 | 38168 ft | 460 kts | 27° |
| 2026-04-25 12:03 | 45.22619 | -0.22965 | 38159 ft | 460 kts | 27° |
| 2026-04-25 12:04 | 45.28287 | -0.18713 | 38164 ft | 461 kts | 27° |
| 2026-04-25 12:04 | 45.33952 | -0.14453 | 38162 ft | 461 kts | 27° |
| 2026-04-25 12:05 | 45.39622 | -0.10180 | 38160 ft | 461 kts | 27° |
| 2026-04-25 12:05 | 45.45294 | -0.05896 | 38161 ft | 462 kts | 27° |
| 2026-04-25 12:06 | 45.50929 | -0.01630 | 38160 ft | 462 kts | 27° |
| 2026-04-25 12:06 | 45.56607 | 0.02679 | 38162 ft | 462 kts | 27° |
| 2026-04-25 12:07 | 45.62278 | 0.06992 | 38161 ft | 462 kts | 27° |
| 2026-04-25 12:07 | 45.67954 | 0.11319 | 38159 ft | 462 kts | 27° |
| 2026-04-25 12:08 | 45.73632 | 0.15658 | 38158 ft | 462 kts | 27° |
| 2026-04-25 12:08 | 45.79297 | 0.19996 | 38152 ft | 462 kts | 27° |
| 2026-04-25 12:09 | 45.84970 | 0.24351 | 38163 ft | 462 kts | 27° |
| 2026-04-25 12:09 | 45.90640 | 0.28715 | 38162 ft | 462 kts | 27° |
| 2026-04-25 12:10 | 45.96302 | 0.33081 | 38163 ft | 462 kts | 27° |
| 2026-04-25 12:10 | 46.01968 | 0.37461 | 38163 ft | 462 kts | 27° |
| 2026-04-25 12:11 | 46.07631 | 0.41849 | 38154 ft | 462 kts | 27° |
| 2026-04-25 12:11 | 46.13285 | 0.46240 | 38157 ft | 462 kts | 27° |
| 2026-04-25 12:12 | 46.17987 | 0.49900 | 38154 ft | 461 kts | 27° |
| 2026-04-25 12:12 | 46.24589 | 0.55051 | 38149 ft | 461 kts | 27° |
| 2026-04-25 12:13 | 46.30226 | 0.59460 | 38150 ft | 461 kts | 28° |
| 2026-04-25 12:13 | 46.35864 | 0.63879 | 38141 ft | 461 kts | 28° |
| 2026-04-25 12:14 | 46.41465 | 0.68279 | 38134 ft | 461 kts | 28° |
| 2026-04-25 12:14 | 46.47096 | 0.72712 | 38139 ft | 460 kts | 28° |
| 2026-04-25 12:15 | 46.52735 | 0.77126 | 38126 ft | 460 kts | 24° |
| 2026-04-25 12:15 | 46.55788 | 0.78583 | 38138 ft | 455 kts | 10° |
| 2026-04-25 12:15 | 46.58888 | 0.79577 | 38124 ft | 458 kts | 12° |
| 2026-04-25 12:16 | 46.65069 | 0.81595 | 38135 ft | 458 kts | 11° |
| 2026-04-25 12:16 | 46.71295 | 0.83570 | 38144 ft | 458 kts | 11° |
| 2026-04-25 12:17 | 46.77521 | 0.85543 | 37242 ft | 459 kts | 11° |
| 2026-04-25 12:17 | 46.80670 | 0.86542 | 36190 ft | 468 kts | 11° |
| 2026-04-25 12:17 | 46.83854 | 0.87553 | 35516 ft | 467 kts | 11° |
| 2026-04-25 12:18 | 46.87021 | 0.88560 | 34927 ft | 464 kts | 11° |
| 2026-04-25 12:18 | 46.90174 | 0.89564 | 34235 ft | 464 kts | 11° |
| 2026-04-25 12:18 | 46.93336 | 0.90572 | 33310 ft | 467 kts | 11° |
| 2026-04-25 12:18 | 46.96518 | 0.91588 | 32528 ft | 467 kts | 11° |
| 2026-04-25 12:19 | 47.01738 | 0.93252 | 31637 ft | 458 kts | 10° |
| 2026-04-25 12:19 | 47.05896 | 0.94576 | 30873 ft | 454 kts | 10° |
| 2026-04-25 12:19 | 47.08963 | 0.95553 | 30359 ft | 449 kts | 10° |
| 2026-04-25 12:20 | 47.12011 | 0.96526 | 29741 ft | 447 kts | 10° |
| 2026-04-25 12:20 | 47.15037 | 0.97494 | 29139 ft | 443 kts | 10° |
| 2026-04-25 12:20 | 47.18031 | 0.98451 | 28598 ft | 439 kts | 10° |
| 2026-04-25 12:20 | 47.20999 | 0.99402 | 28050 ft | 435 kts | 10° |
| 2026-04-25 12:21 | 47.23950 | 1.00347 | 27512 ft | 431 kts | 11° |
| 2026-04-25 12:21 | 47.26871 | 1.01285 | 26984 ft | 428 kts | 11° |
| 2026-04-25 12:21 | 47.29772 | 1.02217 | 26445 ft | 426 kts | 11° |
| 2026-04-25 12:21 | 47.32660 | 1.03145 | 25927 ft | 423 kts | 11° |
| 2026-04-25 12:22 | 47.35531 | 1.04070 | 25398 ft | 421 kts | 11° |
| 2026-04-25 12:22 | 47.38381 | 1.04989 | 24879 ft | 419 kts | 11° |
| 2026-04-25 12:22 | 47.41186 | 1.05893 | 24384 ft | 417 kts | 11° |
| 2026-04-25 12:22 | 47.43975 | 1.07023 | 23868 ft | 416 kts | 19° |
| 2026-04-25 12:23 | 47.46699 | 1.08421 | 23368 ft | 413 kts | 17° |
| 2026-04-25 12:23 | 47.49415 | 1.09768 | 22871 ft | 409 kts | 17° |
| 2026-04-25 12:23 | 47.52099 | 1.11129 | 22341 ft | 407 kts | 18° |
| 2026-04-25 12:23 | 47.54765 | 1.12492 | 21910 ft | 402 kts | 18° |
| 2026-04-25 12:24 | 47.57395 | 1.13831 | 21499 ft | 398 kts | 18° |
| 2026-04-25 12:24 | 47.60004 | 1.15157 | 21040 ft | 395 kts | 18° |
| 2026-04-25 12:24 | 47.62596 | 1.16475 | 20610 ft | 393 kts | 18° |
| 2026-04-25 12:24 | 47.65172 | 1.17787 | 20158 ft | 390 kts | 18° |
| 2026-04-25 12:25 | 47.67730 | 1.19090 | 19726 ft | 388 kts | 18° |
| 2026-04-25 12:25 | 47.70282 | 1.20392 | 19286 ft | 387 kts | 18° |
| 2026-04-25 12:25 | 47.72818 | 1.21687 | 18852 ft | 385 kts | 18° |
| 2026-04-25 12:25 | 47.75348 | 1.22979 | 18409 ft | 384 kts | 17° |
| 2026-04-25 12:26 | 47.77867 | 1.24268 | 17919 ft | 382 kts | 18° |
| 2026-04-25 12:26 | 47.80373 | 1.25552 | 17471 ft | 379 kts | 18° |
| 2026-04-25 12:26 | 47.82862 | 1.26828 | 17036 ft | 377 kts | 18° |
| 2026-04-25 12:26 | 47.85332 | 1.28096 | 16613 ft | 374 kts | 18° |
| 2026-04-25 12:27 | 47.87784 | 1.29355 | 16186 ft | 372 kts | 18° |
| 2026-04-25 12:27 | 47.90221 | 1.30608 | 15770 ft | 370 kts | 18° |
| 2026-04-25 12:27 | 47.92647 | 1.31855 | 15351 ft | 367 kts | 18° |
| 2026-04-25 12:27 | 47.95054 | 1.33097 | 14944 ft | 365 kts | 18° |
| 2026-04-25 12:28 | 47.97450 | 1.34333 | 14535 ft | 363 kts | 18° |
| 2026-04-25 12:28 | 47.99835 | 1.35564 | 14106 ft | 362 kts | 18° |
| 2026-04-25 12:28 | 48.02206 | 1.36789 | 13674 ft | 360 kts | 18° |
| 2026-04-25 12:28 | 48.04570 | 1.38011 | 13241 ft | 358 kts | 18° |
| 2026-04-25 12:29 | 48.06805 | 1.39560 | 12923 ft | 353 kts | 33° |
| 2026-04-25 12:29 | 48.08812 | 1.41618 | 12672 ft | 346 kts | 33° |
| 2026-04-25 12:29 | 48.10789 | 1.43616 | 12422 ft | 339 kts | 33° |
| 2026-04-25 12:29 | 48.12729 | 1.45581 | 12173 ft | 334 kts | 33° |
| 2026-04-25 12:30 | 48.14646 | 1.47515 | 11822 ft | 332 kts | 33° |
| 2026-04-25 12:30 | 48.16556 | 1.49445 | 11483 ft | 330 kts | 33° |
| 2026-04-25 12:30 | 48.18456 | 1.51367 | 11155 ft | 328 kts | 33° |
| 2026-04-25 12:30 | 48.20341 | 1.53276 | 10819 ft | 326 kts | 33° |
| 2026-04-25 12:31 | 48.22217 | 1.55176 | 10474 ft | 325 kts | 33° |
| 2026-04-25 12:31 | 48.24080 | 1.57066 | 10179 ft | 321 kts | 33° |
| 2026-04-25 12:31 | 48.25880 | 1.58899 | 10135 ft | 302 kts | 33° |
| 2026-04-25 12:31 | 48.27592 | 1.60641 | 10140 ft | 294 kts | 33° |
| 2026-04-25 12:32 | 48.29275 | 1.62352 | 10131 ft | 292 kts | 33° |
| 2026-04-25 12:32 | 48.30959 | 1.64068 | 10137 ft | 292 kts | 33° |
| 2026-04-25 12:32 | 48.32631 | 1.65772 | 9871 ft | 291 kts | 33° |
| 2026-04-25 12:32 | 48.34303 | 1.67477 | 9594 ft | 288 kts | 33° |
| 2026-04-25 12:33 | 48.35958 | 1.69166 | 9275 ft | 287 kts | 33° |
| 2026-04-25 12:33 | 48.37584 | 1.70825 | 8987 ft | 286 kts | 33° |
| 2026-04-25 12:33 | 48.39221 | 1.72498 | 8713 ft | 283 kts | 33° |
| 2026-04-25 12:33 | 48.40851 | 1.74167 | 8392 ft | 283 kts | 33° |
| 2026-04-25 12:34 | 48.42473 | 1.75827 | 8124 ft | 281 kts | 33° |
| 2026-04-25 12:34 | 48.44086 | 1.77479 | 7849 ft | 279 kts | 33° |
| 2026-04-25 12:34 | 48.45688 | 1.79119 | 7596 ft | 278 kts | 33° |
| 2026-04-25 12:34 | 48.46227 | 1.79672 | 7509 ft | 277 kts | 33° |
| 2026-04-25 12:35 | 48.48790 | 1.82304 | 7173 ft | 260 kts | 33° |
| 2026-04-25 12:35 | 48.50253 | 1.83808 | 6968 ft | 250 kts | 33° |
| 2026-04-25 12:35 | 48.51661 | 1.85257 | 6727 ft | 242 kts | 33° |
| 2026-04-25 12:35 | 48.53040 | 1.86676 | 6343 ft | 240 kts | 33° |
| 2026-04-25 12:36 | 48.54413 | 1.88090 | 5928 ft | 238 kts | 34° |
| 2026-04-25 12:36 | 48.55785 | 1.89502 | 5665 ft | 238 kts | 34° |
| 2026-04-25 12:36 | 48.57121 | 1.90950 | 5389 ft | 238 kts | 41° |
| 2026-04-25 12:36 | 48.58176 | 1.92841 | 5202 ft | 234 kts | 56° |
| 2026-04-25 12:37 | 48.58734 | 1.94249 | 5004 ft | 237 kts | 61° |
| 2026-04-25 12:37 | 48.59503 | 1.96424 | 4740 ft | 235 kts | 62° |
| 2026-04-25 12:37 | 48.60268 | 1.98599 | 4470 ft | 234 kts | 62° |
| 2026-04-25 12:37 | 48.61030 | 2.00756 | 4189 ft | 233 kts | 61° |
| 2026-04-25 12:38 | 48.61783 | 2.02881 | 4024 ft | 227 kts | 61° |
| 2026-04-25 12:38 | 48.62504 | 2.04912 | 4085 ft | 211 kts | 61° |
| 2026-04-25 12:38 | 48.63185 | 2.06832 | 3976 ft | 203 kts | 62° |
| 2026-04-25 12:38 | 48.63836 | 2.08672 | 3690 ft | 192 kts | 62° |
| 2026-04-25 12:39 | 48.64459 | 2.10426 | 3460 ft | 188 kts | 61° |
| 2026-04-25 12:39 | 48.65077 | 2.12161 | 3241 ft | 187 kts | 61° |
| 2026-04-25 12:39 | 48.65693 | 2.13892 | 3038 ft | 186 kts | 61° |
| 2026-04-25 12:39 | 48.66304 | 2.15619 | 2755 ft | 185 kts | 61° |
| 2026-04-25 12:40 | 48.66910 | 2.17333 | 2518 ft | 185 kts | 61° |
| 2026-04-25 12:40 | 48.67506 | 2.19016 | 2231 ft | 175 kts | 60° |
| 2026-04-25 12:40 | 48.68053 | 2.20559 | 2094 ft | 160 kts | 60° |
| 2026-04-25 12:40 | 48.68564 | 2.21989 | 1843 ft | 149 kts | 60° |
| 2026-04-25 12:41 | 48.69043 | 2.23351 | 1606 ft | 144 kts | 60° |
| 2026-04-25 12:41 | 48.69522 | 2.24683 | 1461 ft | 144 kts | 60° |
| 2026-04-25 12:41 | 48.69987 | 2.25998 | 1223 ft | 140 kts | 62° |
| 2026-04-25 12:41 | 48.70438 | 2.27305 | 1006 ft | 140 kts | 61° |
| 2026-04-25 12:42 | 48.70899 | 2.28599 | 829 ft | 139 kts | 61° |
| 2026-04-25 12:42 | 48.71201 | 2.29454 | 719 ft | 140 kts | 63° |
| 2026-04-25 12:42 | 48.71815 | 2.31195 | 468 ft | 140 kts | 61° |
| 2026-04-25 12:42 | 48.72266 | 2.32460 | 306 ft | 135 kts | 62° |
| 2026-04-25 12:43 | 48.72635 | 2.33526 | 297 ft | 90 kts | 63° |
| 2026-04-25 12:43 | 48.72866 | 2.34179 | 298 ft | 60 kts | 59° |
| 2026-04-25 12:43 | 48.73014 | 2.34814 | 298 ft | 14 kts | 82° |
| 2026-04-25 12:44 | 48.73027 | 2.34959 | 297 ft | 11 kts | 82° |
| 2026-04-25 12:44 | 48.73038 | 2.35085 | 301 ft | 13 kts | 83° |
| 2026-04-25 12:44 | 48.72924 | 2.35317 | 299 ft | 12 kts | 141° |
| 2026-04-25 12:45 | 48.72880 | 2.35413 | 300 ft | 12 kts | 149° |
| 2026-04-25 12:45 | 48.72802 | 2.35454 | 299 ft | 12 kts | 165° |
| 2026-04-25 12:45 | 48.72601 | 2.35538 | 297 ft | 18 kts | 164° |
| 2026-04-25 12:46 | 48.72497 | 2.35582 | 299 ft | 14 kts | 164° |
| 2026-04-25 12:46 | 48.72461 | 2.35661 | 299 ft | 10 kts | 84° |
| 2026-04-25 12:46 | 48.72479 | 2.35774 | 301 ft | 12 kts | 85° |
| 2026-04-25 12:46 | 48.72470 | 2.35918 | 297 ft | 15 kts | 96° |
| 2026-04-25 12:47 | 48.72477 | 2.36073 | 300 ft | 16 kts | 74° |
| 2026-04-25 12:47 | 48.72511 | 2.36247 | 301 ft | 18 kts | 74° |
| 2026-04-25 12:47 | 48.72546 | 2.36445 | 299 ft | 19 kts | 75° |
| 2026-04-25 12:47 | 48.72582 | 2.36629 | 300 ft | 18 kts | 68° |
| 2026-04-25 12:48 | 48.72626 | 2.36808 | 302 ft | 18 kts | 71° |
| 2026-04-25 12:48 | 48.72663 | 2.36988 | 303 ft | 17 kts | 74° |
| 2026-04-25 12:48 | 48.72684 | 2.37099 | 299 ft | 10 kts | 74° |
| 2026-04-25 12:48 | 48.72704 | 2.37184 | 299 ft | 4 kts | 45° |
| 2026-04-25 12:49 | 48.72723 | 2.37192 | 300 ft | 2 kts | 355° |
| 2026-04-25 12:49 | 48.72740 | 2.37186 | 300 ft | 3 kts | 345° |
| 2026-04-25 12:49 | 48.72754 | 2.37180 | 300 ft | 0 kts | 344° |